createdAt,value
2022-08-01T00:01:56.775Z,100879.84
2022-08-01T00:04:23.215Z,100877.94
2022-08-01T00:06:49.674Z,100872.69
2022-08-01T00:09:24.106Z,100880.94
2022-08-01T00:11:59.684Z,100876.69
2022-08-01T00:14:32.711Z,100871.97
2022-08-01T00:17:05.170Z,100876.06
2022-08-01T00:19:33.860Z,100875.31
2022-08-01T00:22:00.339Z,100874.94
2022-08-01T00:24:26.766Z,100873.34
2022-08-01T00:26:53.191Z,100871.72
2022-08-01T00:30:09.490Z,100876.69
2022-08-01T00:32:06.472Z,100869.44
2022-08-01T00:34:33.190Z,100873.34
2022-08-01T00:36:59.634Z,100873.78
2022-08-01T00:39:26.043Z,100877.69
2022-08-01T00:41:59.790Z,100880.69
2022-08-01T00:44:26.944Z,100880.38
2022-08-01T00:46:53.382Z,100884.16
2022-08-01T00:49:19.857Z,100877.75
2022-08-01T00:51:46.341Z,100879.84
2022-08-01T00:54:13.256Z,100887.47
2022-08-01T00:56:42.997Z,100888.81
2022-08-01T00:59:10.036Z,100890.31
2022-08-01T01:01:39.432Z,100893.25
2022-08-01T01:04:08.582Z,100883.69
2022-08-01T01:07:01.044Z,100882.22
2022-08-01T01:09:30.275Z,100878.56
2022-08-01T01:12:17.759Z,100870.63
2022-08-01T01:15:03.904Z,100868.97
2022-08-01T01:17:50.630Z,100871.09
2022-08-01T01:20:18.594Z,100885.09
2022-08-01T01:22:54.109Z,100881.69
2022-08-01T01:25:37.676Z,100886.25
2022-08-01T01:28:21.393Z,100878.75
2022-08-01T01:30:51.728Z,100876.00
2022-08-01T01:33:18.602Z,100878.22
2022-08-01T01:35:48.908Z,100884.31
2022-08-01T01:38:23.215Z,100879.44
2022-08-01T01:40:51.615Z,100884.31
2022-08-01T01:43:18.175Z,100884.63
2022-08-01T01:45:45.780Z,100890.09
2022-08-01T01:48:14.849Z,100884.22
2022-08-01T01:50:42.268Z,100889.41
2022-08-01T01:53:08.940Z,100884.00
2022-08-01T01:55:49.314Z,100881.94
2022-08-01T01:58:17.193Z,100880.78
2022-08-01T02:00:45.724Z,100877.22
2022-08-01T02:03:13.443Z,100886.91
2022-08-01T02:05:40.790Z,100882.06
2022-08-01T02:08:07.940Z,100887.47
2022-08-01T02:10:35.241Z,100883.81
2022-08-01T02:13:04.228Z,100888.88
2022-08-01T02:15:31.461Z,100882.94
2022-08-01T02:17:58.702Z,100886.91
2022-08-01T02:20:27.323Z,100889.09
2022-08-01T02:22:58.904Z,100886.06
2022-08-01T02:25:28.366Z,100881.66
2022-08-01T02:28:09.108Z,100870.66
2022-08-01T02:30:37.494Z,100880.94
2022-08-01T02:33:15.531Z,100876.47
2022-08-01T02:36:32.564Z,100870.28
2022-08-01T02:38:32.618Z,100882.78
2022-08-01T02:41:03.538Z,100880.16
2022-08-01T02:43:31.188Z,100892.19
2022-08-01T02:46:01.489Z,100885.63
2022-08-01T02:48:28.187Z,100896.75
2022-08-01T02:50:56.896Z,100885.63
2022-08-01T02:53:44.224Z,100884.69
2022-08-01T02:56:12.941Z,100882.94
2022-08-01T02:58:40.306Z,100885.69
2022-08-01T03:01:08.252Z,100890.09
2022-08-01T03:03:35.229Z,100886.63
2022-08-01T03:06:02.800Z,100887.28
2022-08-01T03:08:30.791Z,100887.56
2022-08-01T03:10:58.130Z,100882.31
2022-08-01T03:13:26.331Z,100883.25
2022-08-01T03:15:53.242Z,100877.84
2022-08-01T03:18:19.785Z,100885.50
2022-08-01T03:20:46.696Z,100885.81
2022-08-01T03:23:13.756Z,100884.69
2022-08-01T03:25:41.862Z,100880.81
2022-08-01T03:28:09.450Z,100880.63
2022-08-01T03:30:37.898Z,100886.91
2022-08-01T03:33:04.544Z,100884.00
2022-08-01T03:35:34.808Z,100886.25
2022-08-01T03:38:17.460Z,100877.47
2022-08-01T03:40:54.449Z,100886.09
2022-08-01T03:43:29.010Z,100890.72
2022-08-01T03:45:57.656Z,100892.38
2022-08-01T03:48:29.141Z,100894.94
2022-08-01T03:50:56.371Z,100900.06
2022-08-01T03:53:27.316Z,100907.22
2022-08-01T03:55:54.362Z,100901.13
2022-08-01T03:58:21.429Z,100896.03
2022-08-01T04:00:48.607Z,100896.44
2022-08-01T04:03:15.488Z,100893.63
2022-08-01T04:05:43.210Z,100897.22
2022-08-01T04:08:09.697Z,100899.63
2022-08-01T04:10:36.271Z,100898.31
2022-08-01T04:13:02.873Z,100904.47
2022-08-01T04:15:29.409Z,100898.53
2022-08-01T04:17:55.814Z,100908.06
2022-08-01T04:20:22.300Z,100905.34
2022-08-01T04:22:48.839Z,100900.97
2022-08-01T04:25:27.577Z,100897.59
2022-08-01T04:27:54.541Z,100904.22
2022-08-01T04:30:27.367Z,100906.13
2022-08-01T04:32:55.905Z,100916.34
2022-08-01T04:36:02.778Z,100913.72
2022-08-01T04:38:10.261Z,100912.59
2022-08-01T04:40:37.208Z,100915.78
2022-08-01T04:43:03.972Z,100919.28
2022-08-01T04:45:30.680Z,100914.59
2022-08-01T04:47:58.462Z,100918.59
2022-08-01T04:50:25.384Z,100928.75
2022-08-01T04:52:52.569Z,100929.16
2022-08-01T04:55:19.025Z,100931.34
2022-08-01T04:57:47.580Z,100930.75
2022-08-01T05:00:14.892Z,100936.00
2022-08-01T05:02:41.296Z,100927.91
2022-08-01T05:05:08.128Z,100934.81
2022-08-01T05:07:45.093Z,100931.84
2022-08-01T05:10:12.078Z,100930.81
2022-08-01T05:12:38.480Z,100935.28
2022-08-01T05:15:05.627Z,100935.44
2022-08-01T05:17:32.545Z,100939.78
2022-08-01T05:19:59.015Z,100946.75
2022-08-01T05:22:26.490Z,100944.06
2022-08-01T05:24:53.639Z,100944.75
2022-08-01T05:27:20.504Z,100943.44
2022-08-01T05:29:48.014Z,100947.25
2022-08-01T05:32:14.497Z,100948.06
2022-08-01T05:34:40.935Z,100950.47
2022-08-01T05:37:08.303Z,100952.88
2022-08-01T05:39:34.691Z,100952.94
2022-08-01T05:42:01.161Z,100956.19
2022-08-01T05:44:27.650Z,100964.41
2022-08-01T05:46:54.095Z,100952.13
2022-08-01T05:49:20.622Z,100956.19
2022-08-01T05:51:47.195Z,100958.91
2022-08-01T05:54:13.724Z,100960.72
2022-08-01T05:56:40.152Z,100967.31
2022-08-01T05:59:06.548Z,100966.28
2022-08-01T06:01:33.152Z,100959.16
2022-08-01T06:03:59.563Z,100956.13
2022-08-01T06:06:26.684Z,100956.50
2022-08-01T06:08:53.147Z,100958.28
2022-08-01T06:11:19.595Z,100965.28
2022-08-01T06:13:48.469Z,100958.13
2022-08-01T06:16:15.752Z,100960.41
2022-08-01T06:18:42.207Z,100959.69
2022-08-01T06:21:08.632Z,100956.97
2022-08-01T06:23:35.029Z,100964.75
2022-08-01T06:26:01.683Z,100959.78
2022-08-01T06:28:28.104Z,100964.31
2022-08-01T06:30:54.554Z,100958.69
2022-08-01T06:33:21.002Z,100959.38
2022-08-01T06:35:47.465Z,100953.75
2022-08-01T06:38:14.799Z,100947.41
2022-08-01T06:40:41.240Z,100943.91
2022-08-01T06:43:07.663Z,100958.34
2022-08-01T06:45:34.157Z,100956.06
2022-08-01T06:48:00.552Z,100953.13
2022-08-01T06:50:26.952Z,100951.31
2022-08-01T06:52:53.350Z,100948.88
2022-08-01T06:55:20.713Z,100949.22
2022-08-01T06:57:52.158Z,100943.25
2022-08-01T07:00:23.117Z,100950.44
2022-08-01T07:02:51.033Z,100950.94
2022-08-01T07:05:17.769Z,100937.22
2022-08-01T07:07:44.457Z,100939.78
2022-08-01T07:10:11.274Z,100936.66
2022-08-01T07:12:38.999Z,100928.91
2022-08-01T07:15:06.470Z,100932.19
2022-08-01T07:17:32.864Z,100924.63
2022-08-01T07:19:59.258Z,100922.19
2022-08-01T07:22:25.696Z,100929.00
2022-08-01T07:24:54.454Z,100926.06
2022-08-01T07:27:21.331Z,100919.50
2022-08-01T07:29:52.295Z,100919.66
2022-08-01T07:32:20.017Z,100919.09
2022-08-01T07:34:46.704Z,100911.50
2022-08-01T07:37:13.133Z,100926.66
2022-08-01T07:39:39.536Z,100915.13
2022-08-01T07:42:08.244Z,100902.88
2022-08-01T07:44:35.920Z,100912.31
2022-08-01T07:47:02.418Z,100909.84
2022-08-01T07:49:29.130Z,100906.03
2022-08-01T07:52:03.710Z,100907.44
2022-08-01T07:54:33.516Z,100910.88
2022-08-01T07:57:00.839Z,100907.25
2022-08-01T07:59:27.240Z,100904.25
2022-08-01T08:01:53.783Z,100901.56
2022-08-01T08:04:20.236Z,100906.91
2022-08-01T08:06:48.439Z,100909.13
2022-08-01T08:09:15.630Z,100910.38
2022-08-01T08:11:47.183Z,100917.31
2022-08-01T08:14:14.445Z,100921.00
2022-08-01T08:16:40.944Z,100921.00
2022-08-01T08:19:07.349Z,100920.28
2022-08-01T08:21:33.811Z,100919.88
2022-08-01T08:24:18.945Z,100919.56
2022-08-01T08:26:45.360Z,100924.03
2022-08-01T08:29:11.905Z,100928.81
2022-08-01T08:31:52.053Z,100922.91
2022-08-01T08:34:19.628Z,100931.13
2022-08-01T08:36:47.966Z,100932.44
2022-08-01T08:39:14.743Z,100926.28
2022-08-01T08:41:41.857Z,100932.25
2022-08-01T08:44:10.349Z,100933.16
2022-08-01T08:46:45.763Z,100933.22
2022-08-01T08:49:13.862Z,100928.69
2022-08-01T08:51:42.394Z,100933.09
2022-08-01T08:54:11.791Z,100933.66
2022-08-01T08:56:38.622Z,100929.75
2022-08-01T08:59:05.274Z,100937.53
2022-08-01T09:01:36.191Z,100939.94
2022-08-01T09:04:05.663Z,100935.19
2022-08-01T09:06:32.698Z,100933.78
2022-08-01T09:08:59.649Z,100931.03
2022-08-01T09:11:26.494Z,100932.06
2022-08-01T09:14:26.579Z,100931.47
2022-08-01T09:17:07.464Z,100939.47
2022-08-01T09:20:03.480Z,100937.25
2022-08-01T09:22:33.629Z,100934.59
2022-08-01T09:25:02.644Z,100940.50
2022-08-01T09:27:29.189Z,100943.22
2022-08-01T09:30:11.385Z,100942.13
2022-08-01T09:33:11.554Z,100939.09
2022-08-01T09:35:46.276Z,100950.94
2022-08-01T09:38:20.507Z,100950.53
2022-08-01T09:40:54.731Z,100943.97
2022-08-01T09:43:24.491Z,100943.22
2022-08-01T09:45:53.434Z,100947.22
2022-08-01T09:48:22.522Z,100951.81
2022-08-01T09:50:53.321Z,100958.78
2022-08-01T09:53:29.927Z,100949.72
2022-08-01T09:56:09.652Z,100951.31
2022-08-01T09:59:02.056Z,100953.66
2022-08-01T10:01:43.203Z,100939.13
2022-08-01T10:04:15.150Z,100940.38
2022-08-01T10:06:45.022Z,100937.44
2022-08-01T10:09:14.017Z,100936.94
2022-08-01T10:11:42.621Z,100943.09
2022-08-01T10:14:09.169Z,100942.34
2022-08-01T10:16:38.595Z,100957.59
2022-08-01T10:19:14.506Z,100966.56
2022-08-01T10:21:56.343Z,100963.75
2022-08-01T10:24:26.827Z,100964.53
2022-08-01T10:26:57.949Z,100976.44
2022-08-01T10:29:46.288Z,100967.66
2022-08-01T10:32:11.565Z,100962.28
2022-08-01T10:34:38.352Z,100966.94
2022-08-01T10:37:11.301Z,100975.13
2022-08-01T10:39:37.935Z,100955.03
2022-08-01T10:42:10.505Z,100959.28
2022-08-01T10:44:37.673Z,100956.97
2022-08-01T10:47:13.223Z,100960.72
2022-08-01T10:50:04.930Z,100979.84
2022-08-01T10:52:31.476Z,100981.50
2022-08-01T10:55:05.180Z,100984.31
2022-08-01T10:57:52.647Z,100983.66
2022-08-01T11:00:21.373Z,100984.44
2022-08-01T11:03:04.320Z,100989.25
2022-08-01T11:05:35.938Z,100995.28
2022-08-01T11:08:04.860Z,100985.47
2022-08-01T11:10:45.404Z,100972.38
2022-08-01T11:13:12.463Z,100972.44
2022-08-01T11:15:50.008Z,100966.66
2022-08-01T11:18:29.690Z,100968.28
2022-08-01T11:21:56.288Z,100959.84
2022-08-01T11:23:50.547Z,100963.63
2022-08-01T11:26:17.704Z,100959.41
2022-08-01T11:29:05.030Z,100966.09
2022-08-01T11:31:37.528Z,100971.94
2022-08-01T11:34:04.611Z,100973.00
2022-08-01T11:36:55.875Z,100976.19
2022-08-01T11:39:18.702Z,100971.41
2022-08-01T11:41:49.091Z,100989.47
2022-08-01T11:44:21.235Z,100985.31
2022-08-01T11:47:11.543Z,100973.88
2022-08-01T11:49:48.928Z,100962.09
2022-08-01T11:52:30.898Z,100968.97
2022-08-01T11:54:59.512Z,100972.44
2022-08-01T11:57:34.132Z,100983.19
2022-08-01T12:00:15.140Z,100981.44
2022-08-01T12:02:45.473Z,100981.69
2022-08-01T12:05:15.182Z,100974.56
2022-08-01T12:07:43.530Z,100964.22
2022-08-01T12:10:12.342Z,100975.59
2022-08-01T12:12:43.791Z,100971.31
2022-08-01T12:15:10.869Z,100967.28
2022-08-01T12:17:40.666Z,100966.13
2022-08-01T12:20:15.425Z,100969.38
2022-08-01T12:22:44.301Z,100971.28
2022-08-01T12:25:10.890Z,100984.41
2022-08-01T12:27:38.749Z,100982.50
2022-08-01T12:30:11.477Z,100985.41
2022-08-01T12:32:40.395Z,100987.81
2022-08-01T12:35:18.702Z,100992.09
2022-08-01T12:37:50.016Z,100980.09
2022-08-01T12:40:22.055Z,100989.50
2022-08-01T12:42:50.636Z,100980.91
2022-08-01T12:45:26.167Z,100982.09
2022-08-01T12:47:53.661Z,100977.28
2022-08-01T12:50:22.574Z,100980.84
2022-08-01T12:52:50.550Z,100979.34
2022-08-01T12:55:18.728Z,100977.16
2022-08-01T12:57:54.018Z,100976.47
2022-08-01T13:00:25.936Z,100973.59
2022-08-01T13:03:11.078Z,100978.00
2022-08-01T13:05:49.895Z,100974.28
2022-08-01T13:08:22.475Z,100972.06
2022-08-01T13:10:49.559Z,100971.88
2022-08-01T13:13:27.905Z,100972.81
2022-08-01T13:16:04.697Z,100965.03
2022-08-01T13:18:33.399Z,100961.13
2022-08-01T13:21:16.429Z,100963.59
2022-08-01T13:24:13.427Z,100969.75
2022-08-01T13:26:43.762Z,100955.25
2022-08-01T13:29:11.790Z,100958.06
2022-08-01T13:31:39.441Z,100966.41
2022-08-01T13:34:05.888Z,100971.97
2022-08-01T13:36:32.428Z,100971.69
2022-08-01T13:39:18.817Z,100965.00
2022-08-01T13:41:46.260Z,100974.25
2022-08-01T13:44:12.729Z,100981.94
2022-08-01T13:46:39.437Z,100983.50
2022-08-01T13:49:16.584Z,100978.19
2022-08-01T13:51:43.544Z,100986.47
2022-08-01T13:54:10.104Z,100983.84
2022-08-01T13:56:36.782Z,100981.22
2022-08-01T13:59:03.312Z,100977.59
2022-08-01T14:01:34.013Z,100979.22
2022-08-01T14:04:00.973Z,100991.41
2022-08-01T14:06:27.752Z,100976.25
2022-08-01T14:08:54.168Z,100977.44
2022-08-01T14:11:20.668Z,100974.22
2022-08-01T14:13:47.873Z,100975.03
2022-08-01T14:16:14.877Z,100977.47
2022-08-01T14:18:41.895Z,100981.75
2022-08-01T14:21:10.944Z,100980.84
2022-08-01T14:23:37.390Z,100979.84
2022-08-01T14:26:08.434Z,100976.16
2022-08-01T14:28:38.555Z,100980.56
2022-08-01T14:31:07.022Z,100971.47
2022-08-01T14:33:34.366Z,100960.63
2022-08-01T14:36:20.599Z,100976.66
2022-08-01T14:38:47.322Z,100973.47
2022-08-01T14:41:15.546Z,100969.59
2022-08-01T14:43:41.937Z,100977.53
2022-08-01T14:46:10.708Z,100971.69
2022-08-01T14:48:37.105Z,100977.38
2022-08-01T14:51:03.950Z,100971.97
2022-08-01T14:53:31.087Z,100975.13
2022-08-01T14:55:57.521Z,100972.72
2022-08-01T14:58:23.917Z,100977.34
2022-08-01T15:00:52.459Z,100968.03
2022-08-01T15:03:22.393Z,100971.91
2022-08-01T15:05:48.803Z,100970.81
2022-08-01T15:08:15.251Z,100968.44
2022-08-01T15:10:41.772Z,100970.81
2022-08-01T15:13:08.690Z,100963.66
2022-08-01T15:15:35.094Z,100960.47
2022-08-01T15:18:01.519Z,100971.22
2022-08-01T15:20:28.025Z,100968.19
2022-08-01T15:22:55.086Z,100973.97
2022-08-01T15:25:21.560Z,100975.13
2022-08-01T15:27:48.390Z,100966.25
2022-08-01T15:30:14.777Z,100967.97
2022-08-01T15:32:41.163Z,100963.34
2022-08-01T15:35:07.944Z,100975.13
2022-08-01T15:37:35.187Z,100974.81
2022-08-01T15:40:04.219Z,100984.81
2022-08-01T15:42:30.635Z,100979.94
2022-08-01T15:44:57.026Z,100985.34
2022-08-01T15:47:24.960Z,100984.75
2022-08-01T15:49:52.391Z,100980.69
2022-08-01T15:52:21.785Z,100982.75
2022-08-01T15:54:49.960Z,100981.19
2022-08-01T15:57:16.570Z,100984.47
2022-08-01T15:59:42.991Z,100980.19
2022-08-01T16:02:09.867Z,100984.59
2022-08-01T16:04:38.960Z,100977.69
2022-08-01T16:07:06.114Z,100978.31
2022-08-01T16:09:32.526Z,100981.53
2022-08-01T16:11:58.927Z,100986.97
2022-08-01T16:14:25.329Z,100987.38
2022-08-01T16:16:51.746Z,100982.88
2022-08-01T16:19:19.469Z,100987.72
2022-08-01T16:21:47.899Z,100973.06
2022-08-01T16:24:14.540Z,100976.94
2022-08-01T16:26:41.106Z,100983.06
2022-08-01T16:29:07.561Z,100975.91
2022-08-01T16:31:43.788Z,100979.53
2022-08-01T16:34:21.185Z,100979.31
2022-08-01T16:36:50.175Z,100976.97
2022-08-01T16:39:22.439Z,100971.97
2022-08-01T16:41:49.806Z,100986.09
2022-08-01T16:44:28.661Z,100985.41
2022-08-01T16:47:02.964Z,100973.75
2022-08-01T16:49:29.579Z,100972.13
2022-08-01T16:51:55.993Z,100970.56
2022-08-01T16:54:25.429Z,100972.41
2022-08-01T16:56:52.674Z,100977.16
2022-08-01T16:59:19.064Z,100985.41
2022-08-01T17:01:59.167Z,100988.28
2022-08-01T17:04:28.119Z,100986.81
2022-08-01T17:06:54.517Z,100985.63
2022-08-01T17:09:20.977Z,100983.53
2022-08-01T17:11:47.413Z,100988.34
2022-08-01T17:14:14.525Z,100986.97
2022-08-01T17:16:41.658Z,100988.44
2022-08-01T17:19:08.057Z,100983.91
2022-08-01T17:21:34.466Z,100981.13
2022-08-01T17:24:00.989Z,100981.13
2022-08-01T17:26:27.421Z,100993.13
2022-08-01T17:28:53.822Z,100992.97
2022-08-01T17:31:20.332Z,100993.34
2022-08-01T17:33:49.518Z,100995.88
2022-08-01T17:36:20.997Z,100992.09
2022-08-01T17:38:47.514Z,100992.59
2022-08-01T17:41:14.038Z,100998.22
2022-08-01T17:43:40.492Z,101000.31
2022-08-01T17:46:06.897Z,101000.97
2022-08-01T17:48:33.307Z,101001.00
2022-08-01T17:50:59.781Z,101002.59
2022-08-01T17:53:26.204Z,100998.19
2022-08-01T17:55:57.206Z,100997.53
2022-08-01T17:58:48.819Z,100991.16
2022-08-01T18:01:12.052Z,101002.06
2022-08-01T18:03:41.007Z,100998.31
2022-08-01T18:06:08.336Z,101002.59
2022-08-01T18:08:35.378Z,101007.69
2022-08-01T18:11:01.838Z,101001.38
2022-08-01T18:13:29.270Z,101003.00
2022-08-01T18:15:56.319Z,101000.03
2022-08-01T18:18:32.744Z,101004.22
2022-08-01T18:21:01.137Z,101007.50
2022-08-01T18:23:27.654Z,101003.25
2022-08-01T18:25:54.204Z,100997.94
2022-08-01T18:28:30.724Z,101002.72
2022-08-01T18:31:00.793Z,101001.75
2022-08-01T18:33:27.301Z,101006.66
2022-08-01T18:35:54.320Z,101007.31
2022-08-01T18:38:20.727Z,101012.09
2022-08-01T18:40:50.545Z,101008.84
2022-08-01T18:43:17.014Z,101024.13
2022-08-01T18:45:43.471Z,101020.53
2022-08-01T18:48:11.184Z,101016.09
2022-08-01T18:50:37.663Z,101022.47
2022-08-01T18:53:04.064Z,101024.00
2022-08-01T18:55:30.559Z,101021.22
2022-08-01T18:57:56.944Z,101022.69
2022-08-01T19:00:23.376Z,101027.16
2022-08-01T19:02:49.783Z,101027.81
2022-08-01T19:05:16.211Z,101037.34
2022-08-01T19:08:04.884Z,101038.94
2022-08-01T19:10:28.945Z,101044.19
2022-08-01T19:12:55.378Z,101045.66
2022-08-01T19:15:21.794Z,101048.75
2022-08-01T19:17:48.571Z,101059.34
2022-08-01T19:20:15.117Z,101054.06
2022-08-01T19:22:41.681Z,101060.22
2022-08-01T19:25:08.515Z,101062.13
2022-08-01T19:27:37.508Z,101061.47
2022-08-01T19:30:04.517Z,101058.56
2022-08-01T19:32:34.243Z,101069.91
2022-08-01T19:35:08.947Z,101074.66
2022-08-01T19:37:35.393Z,101072.41
2022-08-01T19:40:01.760Z,101080.84
2022-08-01T19:42:29.160Z,101083.03
2022-08-01T19:44:55.809Z,101084.75
2022-08-01T19:47:22.297Z,101089.94
2022-08-01T19:49:49.043Z,101076.09
2022-08-01T19:52:17.719Z,101089.56
2022-08-01T19:54:45.432Z,101084.31
2022-08-01T19:57:15.610Z,101091.53
2022-08-01T19:59:45.537Z,101094.81
2022-08-01T20:02:15.414Z,101099.88
2022-08-01T20:04:42.686Z,101094.44
2022-08-01T20:07:09.484Z,101089.69
2022-08-01T20:09:36.822Z,101092.13
2022-08-01T20:12:03.358Z,101099.69
2022-08-01T20:14:29.839Z,101102.34
2022-08-01T20:16:56.439Z,101104.31
2022-08-01T20:19:25.959Z,101106.06
2022-08-01T20:22:03.214Z,101112.44
2022-08-01T20:24:38.036Z,101111.44
2022-08-01T20:27:06.420Z,101107.38
2022-08-01T20:29:33.261Z,101116.63
2022-08-01T20:32:00.108Z,101115.25
2022-08-01T20:34:27.314Z,101115.72
2022-08-01T20:36:56.412Z,101120.22
2022-08-01T20:39:23.810Z,101115.41
2022-08-01T20:41:59.579Z,101118.00
2022-08-01T20:44:26.916Z,101118.09
2022-08-01T20:46:54.302Z,101118.78
2022-08-01T20:49:21.321Z,101116.91
2022-08-01T20:51:50.567Z,101118.28
2022-08-01T20:54:16.985Z,101117.72
2022-08-01T20:56:58.982Z,101116.38
2022-08-01T20:59:54.528Z,101116.38
2022-08-01T21:03:01.259Z,101124.91
2022-08-01T21:05:30.874Z,101115.88
2022-08-01T21:08:13.232Z,101118.22
2022-08-01T21:10:40.692Z,101115.28
2022-08-01T21:13:12.511Z,101120.13
2022-08-01T21:16:22.201Z,101117.31
2022-08-01T21:18:58.053Z,101117.66
2022-08-01T21:21:30.110Z,101125.03
2022-08-01T21:24:05.889Z,101123.91
2022-08-01T21:26:35.568Z,101119.66
2022-08-01T21:29:06.354Z,101117.31
2022-08-01T21:31:40.893Z,101120.63
2022-08-01T21:34:08.137Z,101121.75
2022-08-01T21:36:35.771Z,101111.72
2022-08-01T21:39:04.770Z,101124.41
2022-08-01T21:42:05.003Z,101122.97
2022-08-01T21:44:18.196Z,101118.06
2022-08-01T21:46:47.033Z,101121.03
2022-08-01T21:49:13.537Z,101116.09
2022-08-01T21:51:51.712Z,101124.38
2022-08-01T21:54:24.650Z,101120.59
2022-08-01T21:57:08.909Z,101132.28
2022-08-01T21:59:51.228Z,101128.38
2022-08-01T22:02:18.073Z,101132.28
2022-08-01T22:05:13.982Z,101138.75
2022-08-01T22:07:48.541Z,101135.06
2022-08-01T22:10:19.482Z,101130.63
2022-08-01T22:12:46.841Z,101141.69
2022-08-01T22:15:14.858Z,101134.00
2022-08-01T22:17:41.953Z,101142.81
2022-08-01T22:20:09.183Z,101142.06
2022-08-01T22:22:50.866Z,101137.16
2022-08-01T22:25:19.909Z,101142.47
2022-08-01T22:28:06.283Z,101143.47
2022-08-01T22:30:34.271Z,101150.31
2022-08-01T22:33:07.112Z,101152.16
2022-08-01T22:35:43.074Z,101148.50
2022-08-01T22:38:10.131Z,101147.94
2022-08-01T22:40:40.571Z,101144.88
2022-08-01T22:43:17.178Z,101150.91
2022-08-01T22:45:54.294Z,101155.06
2022-08-01T22:48:25.700Z,101158.63
2022-08-01T22:51:05.838Z,101164.25
2022-08-01T22:53:44.393Z,101156.97
2022-08-01T22:56:11.884Z,101164.91
2022-08-01T22:58:40.235Z,101166.25
2022-08-01T23:01:10.625Z,101175.38
2022-08-01T23:03:40.545Z,101177.81
2022-08-01T23:06:16.873Z,101174.91
2022-08-01T23:08:45.933Z,101173.81
2022-08-01T23:11:12.992Z,101173.38
2022-08-01T23:13:39.834Z,101167.34
2022-08-01T23:16:06.274Z,101165.66
2022-08-01T23:18:32.811Z,101165.47
2022-08-01T23:21:02.125Z,101158.03
2022-08-01T23:23:30.723Z,101156.53
2022-08-01T23:25:58.817Z,101166.38
2022-08-01T23:28:26.149Z,101169.69
2022-08-01T23:30:52.739Z,101168.81
2022-08-01T23:33:19.254Z,101169.09
2022-08-01T23:35:45.883Z,101169.34
2022-08-01T23:38:15.637Z,101164.84
2022-08-01T23:40:42.318Z,101157.63
2022-08-01T23:43:16.733Z,101163.13
2022-08-01T23:46:04.371Z,101157.56
2022-08-01T23:48:35.019Z,101155.91
2022-08-01T23:51:02.354Z,101150.00
2022-08-01T23:53:31.096Z,101158.66
2022-08-01T23:55:58.716Z,101161.69
2022-08-01T23:58:25.250Z,101161.34
